Buritirama, Brazil
Current Conditions -  °F | °C
As of 5:00 PM on Wednesday 26 Nov 2014 (Local Time) from SBPL Reporting Station
Few Clouds Few Clouds  
Wind Chill: 91°   Ceiling: Unl
Heat Index: 94°   Visibility: 6mi
Dew Point: 66°   Wind: 10mph
Humidity: 43%   Direction: 160°SSE
Pressure: 29.85"   Gusts: NA
Location:  10.73°S, 43.65°W
Report Text: SBPL 262000Z 16009KT 9999 FEW040 33/19 Q1011
Loading
Personal Weather Stations






























Interactive Weather Map New forecast layout! Learn more

10-Day Weather Forecast

Advertisements
Track Severe Weather on mobile